Terminal Aerodrome Forecast
Issued by NWS

Home | Current Version | Previous Version | Text Only | Print | Product List | Glossary On
Versions: 1 2 3 4 5 6 7 8 9 10 11 12 13 14 15 16 17 18 19 20 21 22 23 24
000
FTUS45 KBOI 251125
TAFBKE
TAF
KBKE 251125Z 2512/2612 VRB03KT P6SM VCSH SCT070 BKN150
     FM251700 VRB06KT P6SM SCT150
     FM252100 VRB10KT P6SM VCTS BKN100CB
      TEMPO 2523/2603 VRB15G25KT TSRA BKN100CB
     FM260600 VRB03KT P6SM VCSH BKN150=

USA.gov is the U.S. government's official web portal to all federal, state and local government web resources and services.